createdAt,value
2024-05-09T00:00:38.307Z,6.53
2024-05-09T00:01:22.130Z,6.55
2024-05-09T00:02:04.260Z,6.60
2024-05-09T00:02:46.236Z,6.63
2024-05-09T00:03:28.126Z,7.30
2024-05-09T00:04:10.020Z,7.35
2024-05-09T00:04:51.917Z,6.82
2024-05-09T00:05:33.829Z,6.43
2024-05-09T00:06:15.973Z,6.30
2024-05-09T00:06:57.838Z,6.28
2024-05-09T00:07:39.655Z,6.47
2024-05-09T00:08:21.622Z,6.90
2024-05-09T00:09:03.604Z,6.47
2024-05-09T00:09:45.446Z,6.80
2024-05-09T00:10:35.515Z,6.40
2024-05-09T00:11:20.819Z,6.70
2024-05-09T00:12:02.951Z,6.30
2024-05-09T00:12:44.886Z,6.57
2024-05-09T00:13:26.698Z,6.90
2024-05-09T00:14:08.545Z,6.07
2024-05-09T00:14:50.445Z,6.07
2024-05-09T00:15:33.314Z,5.88
2024-05-09T00:16:15.596Z,5.82
2024-05-09T00:16:57.384Z,5.93
2024-05-09T00:17:39.540Z,5.90
2024-05-09T00:18:21.757Z,5.80
2024-05-09T00:19:03.722Z,5.82
2024-05-09T00:19:46.786Z,5.57
2024-05-09T00:20:36.826Z,5.97
2024-05-09T00:21:21.805Z,6.70
2024-05-09T00:22:03.757Z,5.72
2024-05-09T00:22:45.612Z,5.80
2024-05-09T00:23:27.550Z,5.38
2024-05-09T00:24:09.738Z,5.30
2024-05-09T00:24:51.743Z,5.47
2024-05-09T00:25:33.582Z,5.78
2024-05-09T00:26:19.096Z,5.13
2024-05-09T00:27:00.915Z,5.30
2024-05-09T00:27:42.954Z,5.60
2024-05-09T00:28:25.848Z,6.13
2024-05-09T00:29:07.714Z,6.32
2024-05-09T00:29:49.540Z,6.63
2024-05-09T00:30:35.131Z,6.70
2024-05-09T00:31:19.001Z,6.07
2024-05-09T00:32:00.967Z,6.20
2024-05-09T00:32:42.900Z,6.25
2024-05-09T00:33:25.042Z,6.10
2024-05-09T00:34:07.220Z,6.57
2024-05-09T00:34:49.382Z,6.68
2024-05-09T00:35:31.388Z,6.53
2024-05-09T00:36:13.212Z,6.68
2024-05-09T00:36:54.990Z,6.03
2024-05-09T00:37:36.791Z,6.10
2024-05-09T00:38:18.704Z,6.45
2024-05-09T00:39:00.648Z,5.70
2024-05-09T00:39:42.464Z,6.00
2024-05-09T00:40:35.062Z,6.50
2024-05-09T00:41:21.099Z,6.88
2024-05-09T00:42:03.299Z,6.53
2024-05-09T00:42:46.849Z,6.35
2024-05-09T00:43:28.699Z,6.07
2024-05-09T00:44:10.542Z,6.38
2024-05-09T00:44:52.318Z,6.38
2024-05-09T00:45:35.226Z,6.18
2024-05-09T00:46:17.569Z,6.80
2024-05-09T00:46:59.622Z,6.68
2024-05-09T00:47:44.318Z,6.50
2024-05-09T00:48:27.072Z,6.22
2024-05-09T00:49:09.403Z,6.40
2024-05-09T00:49:51.394Z,7.03
2024-05-09T00:50:37.162Z,6.68
2024-05-09T00:51:20.171Z,7.10
2024-05-09T00:52:02.675Z,6.78
2024-05-09T00:52:46.235Z,7.72
2024-05-09T00:53:28.354Z,7.32
2024-05-09T00:54:10.198Z,7.30
2024-05-09T00:54:52.236Z,7.32
2024-05-09T00:55:36.035Z,6.75
2024-05-09T00:56:21.239Z,6.82
2024-05-09T00:57:04.496Z,7.03
2024-05-09T00:57:47.109Z,7.43
2024-05-09T00:58:30.309Z,7.60
2024-05-09T00:59:12.804Z,7.43
2024-05-09T00:59:55.502Z,7.05
2024-05-09T01:00:40.240Z,6.90
2024-05-09T01:01:24.785Z,7.30
2024-05-09T01:02:06.841Z,6.35
2024-05-09T01:02:48.872Z,6.43
2024-05-09T01:03:31.001Z,6.05
2024-05-09T01:04:13.787Z,6.95
2024-05-09T01:04:55.839Z,6.50
2024-05-09T01:05:39.580Z,6.47
2024-05-09T01:06:21.996Z,6.40
2024-05-09T01:07:04.254Z,6.32
2024-05-09T01:07:46.562Z,6.10
2024-05-09T01:08:28.531Z,6.18
2024-05-09T01:09:10.399Z,6.05
2024-05-09T01:09:52.227Z,6.00
2024-05-09T01:10:35.579Z,6.40
2024-05-09T01:11:18.448Z,5.57
2024-05-09T01:12:00.613Z,5.63
2024-05-09T01:12:42.558Z,5.80
2024-05-09T01:13:24.389Z,5.95
2024-05-09T01:14:06.501Z,5.53
2024-05-09T01:14:48.443Z,6.00
2024-05-09T01:15:30.319Z,6.30
2024-05-09T01:16:13.630Z,6.45
2024-05-09T01:16:55.666Z,5.78
2024-05-09T01:17:37.725Z,6.18
2024-05-09T01:18:20.159Z,6.25
2024-05-09T01:19:04.832Z,6.60
2024-05-09T01:19:46.895Z,6.00
2024-05-09T01:20:39.147Z,6.70
2024-05-09T01:21:23.969Z,6.68
2024-05-09T01:22:08.002Z,6.57
2024-05-09T01:22:52.338Z,6.68
2024-05-09T01:23:34.435Z,6.80
2024-05-09T01:24:16.616Z,6.97
2024-05-09T01:24:58.382Z,7.05
2024-05-09T01:25:40.334Z,6.70
2024-05-09T01:26:22.155Z,6.43
2024-05-09T01:27:04.265Z,6.20
2024-05-09T01:27:46.065Z,6.68
2024-05-09T01:28:27.924Z,6.03
2024-05-09T01:29:09.877Z,5.93
2024-05-09T01:29:51.648Z,6.47
2024-05-09T01:30:36.104Z,6.05
2024-05-09T01:31:19.418Z,6.20
2024-05-09T01:32:01.384Z,6.03
2024-05-09T01:32:43.623Z,5.82
2024-05-09T01:33:25.858Z,6.20
2024-05-09T01:34:07.955Z,6.47
2024-05-09T01:34:49.970Z,6.35
2024-05-09T01:35:32.044Z,6.40
2024-05-09T01:36:13.909Z,6.40
2024-05-09T01:36:55.766Z,6.65
2024-05-09T01:37:37.594Z,6.35
2024-05-09T01:38:19.917Z,6.70
2024-05-09T01:39:01.956Z,6.30
2024-05-09T01:39:43.718Z,6.38
2024-05-09T01:40:35.410Z,6.60
2024-05-09T01:41:20.299Z,6.50
2024-05-09T01:42:02.190Z,6.45
2024-05-09T01:42:44.435Z,5.82
2024-05-09T01:43:26.256Z,6.22
2024-05-09T01:44:08.080Z,6.28
2024-05-09T01:44:49.968Z,5.90
2024-05-09T01:45:31.853Z,6.68
2024-05-09T01:46:15.299Z,6.47
2024-05-09T01:46:57.084Z,7.10
2024-05-09T01:47:39.141Z,6.65
2024-05-09T01:48:21.638Z,5.93
2024-05-09T01:49:04.532Z,6.18
2024-05-09T01:49:46.443Z,5.93
2024-05-09T01:50:37.729Z,5.80
2024-05-09T01:51:22.901Z,6.13
2024-05-09T01:52:04.864Z,6.32
2024-05-09T01:52:46.625Z,6.47
2024-05-09T01:53:28.518Z,6.72
2024-05-09T01:54:10.324Z,6.80
2024-05-09T01:54:52.240Z,6.38
2024-05-09T01:55:34.030Z,6.05
2024-05-09T01:56:15.888Z,6.28
2024-05-09T01:56:57.839Z,6.40
2024-05-09T01:57:39.702Z,6.53
2024-05-09T01:58:22.575Z,6.70
2024-05-09T01:59:06.180Z,6.38
2024-05-09T01:59:47.945Z,6.60
2024-05-09T02:00:38.623Z,6.63
2024-05-09T02:01:23.495Z,6.97
2024-05-09T02:02:05.535Z,5.72
2024-05-09T02:02:47.636Z,5.97
2024-05-09T02:03:29.782Z,6.57
2024-05-09T02:04:12.066Z,6.22
2024-05-09T02:04:54.224Z,6.43
2024-05-09T02:05:36.194Z,6.38
2024-05-09T02:06:18.203Z,6.32
2024-05-09T02:07:00.072Z,5.88
2024-05-09T02:07:41.867Z,5.85
2024-05-09T02:08:23.728Z,5.97
2024-05-09T02:09:05.578Z,6.03
2024-05-09T02:09:47.691Z,5.20
2024-05-09T02:10:32.707Z,5.70
2024-05-09T02:11:15.264Z,5.90
2024-05-09T02:11:57.365Z,6.00
2024-05-09T02:12:40.126Z,6.10
2024-05-09T02:13:22.007Z,6.05
2024-05-09T02:14:03.807Z,6.00
2024-05-09T02:14:45.620Z,5.90
2024-05-09T02:15:27.813Z,6.72
2024-05-09T02:16:12.308Z,5.60
2024-05-09T02:16:54.159Z,5.97
2024-05-09T02:17:36.484Z,6.55
2024-05-09T02:18:20.640Z,5.70
2024-05-09T02:19:02.719Z,6.38
2024-05-09T02:19:44.607Z,6.13
2024-05-09T02:20:33.862Z,6.03
2024-05-09T02:21:18.286Z,6.43
2024-05-09T02:22:00.086Z,5.78
2024-05-09T02:22:41.893Z,6.28
2024-05-09T02:23:23.734Z,5.80
2024-05-09T02:24:06.056Z,6.18
2024-05-09T02:24:47.870Z,5.97
2024-05-09T02:25:29.980Z,5.90
2024-05-09T02:26:11.847Z,5.90
2024-05-09T02:26:53.643Z,5.97
2024-05-09T02:27:35.475Z,6.13
2024-05-09T02:28:17.272Z,5.80
2024-05-09T02:28:59.683Z,5.63
2024-05-09T02:29:43.215Z,5.80
2024-05-09T02:30:35.038Z,6.07
2024-05-09T02:31:21.376Z,5.68
2024-05-09T02:32:03.377Z,6.00
2024-05-09T02:32:45.355Z,5.30
2024-05-09T02:33:27.401Z,5.97
2024-05-09T02:34:09.457Z,5.93
2024-05-09T02:34:51.374Z,6.43
2024-05-09T02:35:33.634Z,6.65
2024-05-09T02:36:18.668Z,6.50
2024-05-09T02:37:00.831Z,6.15
2024-05-09T02:37:42.759Z,7.07
2024-05-09T02:38:24.720Z,6.47
2024-05-09T02:39:06.613Z,6.00
2024-05-09T02:39:48.431Z,6.78
2024-05-09T02:40:36.690Z,6.68
2024-05-09T02:41:20.773Z,6.10
2024-05-09T02:42:02.846Z,6.35
2024-05-09T02:42:44.807Z,5.90
2024-05-09T02:43:26.717Z,5.78
2024-05-09T02:44:08.862Z,6.43
2024-05-09T02:44:50.738Z,6.15
2024-05-09T02:45:32.560Z,6.32
2024-05-09T02:46:14.550Z,5.43
2024-05-09T02:46:56.349Z,5.90
2024-05-09T02:47:38.561Z,5.60
2024-05-09T02:48:20.653Z,6.13
2024-05-09T02:49:03.000Z,5.75
2024-05-09T02:49:45.018Z,5.65
2024-05-09T02:50:34.419Z,5.40
2024-05-09T02:51:20.665Z,5.63
2024-05-09T02:52:02.565Z,5.82
2024-05-09T02:52:44.486Z,6.07
2024-05-09T02:53:26.509Z,6.30
2024-05-09T02:54:09.975Z,6.30
2024-05-09T02:54:51.822Z,6.35
2024-05-09T02:55:34.320Z,6.60
2024-05-09T02:56:16.110Z,6.45
2024-05-09T02:56:57.874Z,5.70
2024-05-09T02:57:39.794Z,6.57
2024-05-09T02:58:21.602Z,6.63
2024-05-09T02:59:03.630Z,6.72
2024-05-09T02:59:45.477Z,7.28
2024-05-09T03:00:35.259Z,6.95
2024-05-09T03:01:21.382Z,6.85
2024-05-09T03:02:03.407Z,6.45
2024-05-09T03:02:45.493Z,6.63
2024-05-09T03:03:27.771Z,7.10
2024-05-09T03:04:09.815Z,6.45
2024-05-09T03:04:51.848Z,6.85
2024-05-09T03:05:33.835Z,6.90
2024-05-09T03:06:15.861Z,6.63
2024-05-09T03:06:57.679Z,6.55
2024-05-09T03:07:43.167Z,6.78
2024-05-09T03:08:25.109Z,6.25
2024-05-09T03:09:09.235Z,6.90
2024-05-09T03:09:51.027Z,7.18
2024-05-09T03:10:36.370Z,6.25
2024-05-09T03:11:24.513Z,6.43
2024-05-09T03:12:07.466Z,6.55
2024-05-09T03:12:49.513Z,6.43
2024-05-09T03:13:31.376Z,6.15
2024-05-09T03:14:17.069Z,5.93
2024-05-09T03:14:58.847Z,6.03
2024-05-09T03:15:40.636Z,6.40
2024-05-09T03:16:22.716Z,5.95
2024-05-09T03:17:04.780Z,5.88
2024-05-09T03:17:46.798Z,6.20
2024-05-09T03:18:28.930Z,5.97
2024-05-09T03:19:11.031Z,5.60
2024-05-09T03:19:52.998Z,5.55
2024-05-09T03:20:36.264Z,6.07
2024-05-09T03:21:18.922Z,5.75
2024-05-09T03:22:00.749Z,6.00
2024-05-09T03:22:42.518Z,5.80
2024-05-09T03:23:24.343Z,5.97
2024-05-09T03:24:10.764Z,5.97
2024-05-09T03:24:52.615Z,6.00
2024-05-09T03:25:34.630Z,5.65
2024-05-09T03:26:18.151Z,5.60
2024-05-09T03:27:00.084Z,5.93
2024-05-09T03:27:42.081Z,5.70
2024-05-09T03:28:23.859Z,6.32
2024-05-09T03:29:05.768Z,6.20
2024-05-09T03:29:47.585Z,6.35
2024-05-09T03:30:36.640Z,6.32
2024-05-09T03:31:23.550Z,6.25
2024-05-09T03:32:05.612Z,6.05
2024-05-09T03:32:47.737Z,5.70
2024-05-09T03:33:29.914Z,5.90
2024-05-09T03:34:12.326Z,6.13
2024-05-09T03:34:54.150Z,5.75
2024-05-09T03:35:36.015Z,5.85
2024-05-09T03:36:17.869Z,5.95
2024-05-09T03:36:59.622Z,5.47
2024-05-09T03:37:41.437Z,5.32
2024-05-09T03:38:23.290Z,5.60
2024-05-09T03:39:05.112Z,5.90
2024-05-09T03:39:46.876Z,5.70
2024-05-09T03:40:30.907Z,6.25
2024-05-09T03:41:13.251Z,6.10
2024-05-09T03:41:55.117Z,6.47
2024-05-09T03:42:41.743Z,6.35
2024-05-09T03:43:23.870Z,5.80
2024-05-09T03:44:05.766Z,6.38
2024-05-09T03:44:47.737Z,6.28
2024-05-09T03:45:29.477Z,5.80
2024-05-09T03:46:11.391Z,6.93
2024-05-09T03:46:53.281Z,6.20
2024-05-09T03:47:35.659Z,6.22
2024-05-09T03:48:17.807Z,6.22
2024-05-09T03:48:59.915Z,6.40
2024-05-09T03:49:41.756Z,5.85
2024-05-09T03:50:30.123Z,6.65
2024-05-09T03:51:15.801Z,6.15
2024-05-09T03:51:57.652Z,6.20
2024-05-09T03:52:40.388Z,6.03
2024-05-09T03:53:22.936Z,6.07
2024-05-09T03:54:04.914Z,6.53
2024-05-09T03:54:48.841Z,6.72
2024-05-09T03:55:31.120Z,6.32
2024-05-09T03:56:13.111Z,6.68
2024-05-09T03:56:55.093Z,6.47
2024-05-09T03:57:36.974Z,6.88
2024-05-09T03:58:19.210Z,6.25
2024-05-09T03:59:01.252Z,6.15
2024-05-09T03:59:43.104Z,6.70
2024-05-09T04:00:31.562Z,6.10
2024-05-09T04:01:19.446Z,6.13
2024-05-09T04:02:01.417Z,6.18
2024-05-09T04:02:47.313Z,6.10
2024-05-09T04:03:29.700Z,5.78
2024-05-09T04:04:11.648Z,6.03
2024-05-09T04:04:53.608Z,5.57
2024-05-09T04:05:35.627Z,5.75
2024-05-09T04:06:24.050Z,6.18
2024-05-09T04:07:05.866Z,6.20
2024-05-09T04:07:47.726Z,6.28
2024-05-09T04:08:29.626Z,5.88
2024-05-09T04:09:11.411Z,6.38
2024-05-09T04:09:53.200Z,5.70
2024-05-09T04:10:35.581Z,5.50
2024-05-09T04:11:17.723Z,5.35
2024-05-09T04:11:59.616Z,5.93
2024-05-09T04:12:41.443Z,6.05
2024-05-09T04:13:23.473Z,6.22
2024-05-09T04:14:05.353Z,6.95
2024-05-09T04:14:47.125Z,8.00
2024-05-09T04:15:28.945Z,7.72
2024-05-09T04:16:11.734Z,7.78
2024-05-09T04:16:53.540Z,8.02
2024-05-09T04:17:35.585Z,7.93
2024-05-09T04:18:18.142Z,8.35
2024-05-09T04:19:00.110Z,7.75
2024-05-09T04:19:41.959Z,9.63
2024-05-09T04:20:33.538Z,8.85
2024-05-09T04:21:20.328Z,9.88
2024-05-09T04:22:02.086Z,8.95
2024-05-09T04:22:43.897Z,9.05
2024-05-09T04:23:25.843Z,9.00
2024-05-09T04:24:07.690Z,9.45
2024-05-09T04:24:49.471Z,9.32
2024-05-09T04:25:34.091Z,10.35
2024-05-09T04:26:15.946Z,10.32
2024-05-09T04:26:57.748Z,9.40
2024-05-09T04:27:39.591Z,9.63
2024-05-09T04:28:21.641Z,9.88
2024-05-09T04:29:03.463Z,10.32
2024-05-09T04:29:45.326Z,8.05
2024-05-09T04:30:36.072Z,8.48
2024-05-09T04:31:20.906Z,8.20
2024-05-09T04:32:04.705Z,8.18
2024-05-09T04:32:46.828Z,7.63
2024-05-09T04:33:29.518Z,7.35
2024-05-09T04:34:11.655Z,7.70
2024-05-09T04:34:53.546Z,8.65
2024-05-09T04:35:35.579Z,8.15
2024-05-09T04:36:17.490Z,7.97
2024-05-09T04:36:59.274Z,8.10
2024-05-09T04:37:41.026Z,7.97
2024-05-09T04:38:22.916Z,8.27
2024-05-09T04:39:04.789Z,7.90
2024-05-09T04:39:46.555Z,8.52
2024-05-09T04:40:33.649Z,7.55
2024-05-09T04:41:17.932Z,8.00
2024-05-09T04:41:59.717Z,8.18
2024-05-09T04:42:41.658Z,7.70
2024-05-09T04:43:23.463Z,8.52
2024-05-09T04:44:05.222Z,8.18
2024-05-09T04:44:47.046Z,8.30
2024-05-09T04:45:28.872Z,8.10
2024-05-09T04:46:11.098Z,8.27
2024-05-09T04:46:52.947Z,8.48
2024-05-09T04:47:34.902Z,8.55
2024-05-09T04:48:17.310Z,9.25
2024-05-09T04:48:59.253Z,9.63
2024-05-09T04:49:42.374Z,9.13
2024-05-09T04:50:33.472Z,10.15
2024-05-09T04:51:19.280Z,8.57
2024-05-09T04:52:01.096Z,9.05
2024-05-09T04:52:42.935Z,9.00
2024-05-09T04:53:24.793Z,7.43
2024-05-09T04:54:08.478Z,7.53
2024-05-09T04:54:54.086Z,7.95
2024-05-09T04:55:36.768Z,8.55
2024-05-09T04:56:18.743Z,8.85
2024-05-09T04:57:00.607Z,8.18
2024-05-09T04:57:42.496Z,8.45
2024-05-09T04:58:24.283Z,8.45
2024-05-09T04:59:06.239Z,7.97
2024-05-09T04:59:49.232Z,8.00
2024-05-09T05:00:36.509Z,7.60
2024-05-09T05:01:20.851Z,7.82
2024-05-09T05:02:02.866Z,7.32
2024-05-09T05:02:44.842Z,7.80
2024-05-09T05:03:26.879Z,7.53
2024-05-09T05:04:09.208Z,7.57
2024-05-09T05:04:51.108Z,7.07
2024-05-09T05:05:33.134Z,8.13
2024-05-09T05:06:15.279Z,7.63
2024-05-09T05:06:58.358Z,7.50
2024-05-09T05:07:42.207Z,7.78
2024-05-09T05:08:24.022Z,7.85
2024-05-09T05:09:05.808Z,7.30
2024-05-09T05:09:47.561Z,7.13
2024-05-09T05:10:35.055Z,8.00
2024-05-09T05:11:19.102Z,7.75
2024-05-09T05:12:02.873Z,7.78
2024-05-09T05:13:03.472Z,7.93
2024-05-09T05:13:46.665Z,8.30
2024-05-09T05:14:28.669Z,8.23
2024-05-09T05:15:10.458Z,8.25
2024-05-09T05:15:56.077Z,8.20
2024-05-09T05:16:38.892Z,8.20
2024-05-09T05:17:20.811Z,7.97
2024-05-09T05:18:02.818Z,8.15
2024-05-09T05:18:44.830Z,8.40
2024-05-09T05:19:26.742Z,8.55
2024-05-09T05:20:12.700Z,9.45
2024-05-09T05:20:58.015Z,8.48
2024-05-09T05:21:39.881Z,8.25
2024-05-09T05:22:23.322Z,8.55
2024-05-09T05:23:08.745Z,7.80
2024-05-09T05:23:50.529Z,7.47
2024-05-09T05:24:32.337Z,7.78
2024-05-09T05:25:14.193Z,7.35
2024-05-09T05:25:56.118Z,7.60
2024-05-09T05:26:39.025Z,7.90
2024-05-09T05:27:20.800Z,7.55
2024-05-09T05:28:02.637Z,7.20
2024-05-09T05:28:44.504Z,7.10
2024-05-09T05:29:26.381Z,7.03
2024-05-09T05:30:14.682Z,7.25
2024-05-09T05:30:59.684Z,6.25
2024-05-09T05:31:41.593Z,7.15
2024-05-09T05:32:23.585Z,6.40
2024-05-09T05:33:06.909Z,6.57
2024-05-09T05:33:49.201Z,6.00
2024-05-09T05:34:31.543Z,6.15
2024-05-09T05:35:13.450Z,5.97
2024-05-09T05:35:55.816Z,6.40
2024-05-09T05:36:37.608Z,6.70
2024-05-09T05:37:19.397Z,6.65
2024-05-09T05:38:01.348Z,6.40
2024-05-09T05:38:43.699Z,6.05
2024-05-09T05:39:26.086Z,6.45
2024-05-09T05:40:11.895Z,6.30
2024-05-09T05:40:56.573Z,6.57
2024-05-09T05:41:38.488Z,6.50
2024-05-09T05:42:20.329Z,6.32
2024-05-09T05:43:02.776Z,6.35
2024-05-09T05:43:44.597Z,6.53
2024-05-09T05:44:26.423Z,6.47
2024-05-09T05:45:09.878Z,6.60
2024-05-09T05:45:51.840Z,6.40
2024-05-09T05:46:33.599Z,7.40
2024-05-09T05:47:15.585Z,6.72
2024-05-09T05:47:57.752Z,7.40
2024-05-09T05:48:39.851Z,7.38
2024-05-09T05:49:21.747Z,7.28
2024-05-09T05:50:07.213Z,7.25
2024-05-09T05:50:53.613Z,7.95
2024-05-09T05:51:35.413Z,7.50
2024-05-09T05:52:17.278Z,7.68
2024-05-09T05:52:59.090Z,8.60
2024-05-09T05:53:41.047Z,7.63
2024-05-09T05:54:22.952Z,7.68
2024-05-09T05:55:05.355Z,8.98
2024-05-09T05:55:47.319Z,8.93
2024-05-09T05:56:29.257Z,9.07
2024-05-09T05:57:11.116Z,8.45
2024-05-09T05:57:52.964Z,9.10
2024-05-09T05:58:34.766Z,8.52
2024-05-09T05:59:16.611Z,7.95
2024-05-09T05:59:58.416Z,7.95
2024-05-09T06:00:41.629Z,8.00
2024-05-09T06:01:24.255Z,7.93
2024-05-09T06:02:06.307Z,8.05
2024-05-09T06:02:48.178Z,7.88
2024-05-09T06:03:30.173Z,7.88
2024-05-09T06:04:12.245Z,7.82
2024-05-09T06:04:54.368Z,7.95
2024-05-09T06:05:36.957Z,7.65
2024-05-09T06:06:19.001Z,7.57
2024-05-09T06:07:00.837Z,8.23
2024-05-09T06:07:42.606Z,7.40
2024-05-09T06:08:27.125Z,7.60
2024-05-09T06:09:10.633Z,7.55
2024-05-09T06:09:52.437Z,7.45
2024-05-09T06:10:38.514Z,6.88
2024-05-09T06:11:22.377Z,7.50
2024-05-09T06:12:04.909Z,6.70
2024-05-09T06:12:46.771Z,7.30
2024-05-09T06:13:28.754Z,7.03
2024-05-09T06:14:10.667Z,7.22
2024-05-09T06:14:52.438Z,7.00
2024-05-09T06:15:34.982Z,7.63
2024-05-09T06:16:16.796Z,6.85
2024-05-09T06:16:59.185Z,7.28
2024-05-09T06:17:41.083Z,7.22
2024-05-09T06:18:23.376Z,7.00
2024-05-09T06:19:05.434Z,7.15
2024-05-09T06:19:47.516Z,7.40
2024-05-09T06:20:35.909Z,7.30
2024-05-09T06:21:19.819Z,7.32
2024-05-09T06:22:02.993Z,6.82
2024-05-09T06:22:44.821Z,7.43
2024-05-09T06:23:26.650Z,7.40
2024-05-09T06:24:08.556Z,7.38
2024-05-09T06:24:50.415Z,7.32
2024-05-09T06:25:32.380Z,7.30
2024-05-09T06:26:14.400Z,7.03
2024-05-09T06:26:56.280Z,6.97
2024-05-09T06:27:39.961Z,7.88
2024-05-09T06:28:21.731Z,7.55
2024-05-09T06:29:03.566Z,7.32
2024-05-09T06:29:45.463Z,7.30
2024-05-09T06:30:36.567Z,7.03
2024-05-09T06:31:21.413Z,6.80
2024-05-09T06:32:03.773Z,7.00
2024-05-09T06:32:45.820Z,6.55
2024-05-09T06:33:27.917Z,7.57
2024-05-09T06:34:10.622Z,7.55
2024-05-09T06:34:52.464Z,6.63
2024-05-09T06:35:34.472Z,7.22
2024-05-09T06:36:16.303Z,6.95
2024-05-09T06:36:58.191Z,6.72
2024-05-09T06:37:39.958Z,7.15
2024-05-09T06:38:21.784Z,7.30
2024-05-09T06:39:03.730Z,7.40
2024-05-09T06:39:46.043Z,6.90
2024-05-09T06:40:36.290Z,7.30
2024-05-09T06:41:21.052Z,7.05
2024-05-09T06:42:03.034Z,7.10
2024-05-09T06:42:44.811Z,7.03
2024-05-09T06:43:26.594Z,7.63
2024-05-09T06:44:09.547Z,7.82
2024-05-09T06:44:51.427Z,7.00
2024-05-09T06:45:33.410Z,6.93
2024-05-09T06:46:15.325Z,7.47
2024-05-09T06:46:59.773Z,6.95
2024-05-09T06:47:42.592Z,7.13
2024-05-09T06:48:24.681Z,7.53
2024-05-09T06:49:08.838Z,6.97
2024-05-09T06:49:50.789Z,7.18
2024-05-09T06:50:37.507Z,7.20
2024-05-09T06:51:21.415Z,7.30
2024-05-09T06:52:03.640Z,7.15
2024-05-09T06:52:48.243Z,7.38
2024-05-09T06:53:30.251Z,7.75
2024-05-09T06:54:12.433Z,7.82
2024-05-09T06:54:54.447Z,7.35
2024-05-09T06:55:37.136Z,7.43
2024-05-09T06:56:19.057Z,7.35
2024-05-09T06:57:00.949Z,7.05
2024-05-09T06:57:43.210Z,7.13
2024-05-09T06:58:25.425Z,7.20
2024-05-09T06:59:07.275Z,7.55
2024-05-09T06:59:49.324Z,7.47
2024-05-09T07:00:38.515Z,7.13
2024-05-09T07:01:22.759Z,7.10
2024-05-09T07:02:04.732Z,7.35
2024-05-09T07:02:46.948Z,6.95
2024-05-09T07:03:31.882Z,6.60
2024-05-09T07:04:13.920Z,5.97
2024-05-09T07:04:55.927Z,6.05
2024-05-09T07:05:37.974Z,6.13
2024-05-09T07:06:19.782Z,6.30
2024-05-09T07:07:01.645Z,6.32
2024-05-09T07:07:43.434Z,6.03
2024-05-09T07:08:25.294Z,6.15
2024-05-09T07:09:07.095Z,6.88
2024-05-09T07:09:49.138Z,6.00
2024-05-09T07:10:35.050Z,5.95
2024-05-09T07:11:18.113Z,5.57
2024-05-09T07:12:00.013Z,5.57
2024-05-09T07:12:41.889Z,6.15
2024-05-09T07:13:23.735Z,5.90
2024-05-09T07:14:06.006Z,5.93
2024-05-09T07:14:47.971Z,6.03
2024-05-09T07:15:29.783Z,5.90
2024-05-09T07:16:11.574Z,5.40
2024-05-09T07:16:53.578Z,5.95
2024-05-09T07:17:35.964Z,5.30
2024-05-09T07:18:20.386Z,5.95
2024-05-09T07:19:02.893Z,5.78
2024-05-09T07:19:45.043Z,6.13
2024-05-09T07:20:34.011Z,5.50
2024-05-09T07:21:17.201Z,5.53
2024-05-09T07:21:59.953Z,5.88
2024-05-09T07:22:41.997Z,5.90
2024-05-09T07:23:23.826Z,5.88
2024-05-09T07:24:06.193Z,6.05
2024-05-09T07:24:47.987Z,5.93
2024-05-09T07:25:30.500Z,5.90
2024-05-09T07:26:12.531Z,5.75
2024-05-09T07:26:54.738Z,5.15
2024-05-09T07:27:36.499Z,5.28
2024-05-09T07:28:20.411Z,5.63
2024-05-09T07:29:02.320Z,5.72
2024-05-09T07:29:44.151Z,5.25
2024-05-09T07:30:32.894Z,5.03
2024-05-09T07:31:16.211Z,5.82
2024-05-09T07:31:58.320Z,5.20
2024-05-09T07:32:40.347Z,5.78
2024-05-09T07:33:23.788Z,5.10
2024-05-09T07:34:06.604Z,5.47
2024-05-09T07:34:48.733Z,5.38
2024-05-09T07:35:31.217Z,5.30
2024-05-09T07:36:13.278Z,4.80
2024-05-09T07:36:55.108Z,4.75
2024-05-09T07:37:36.911Z,5.35
2024-05-09T07:38:19.058Z,5.28
2024-05-09T07:39:01.166Z,5.07
2024-05-09T07:39:43.091Z,4.50
2024-05-09T07:40:32.902Z,4.63
2024-05-09T07:41:18.279Z,4.65
2024-05-09T07:42:00.165Z,4.05
2024-05-09T07:42:41.980Z,4.75
2024-05-09T07:43:23.766Z,4.78
2024-05-09T07:44:05.580Z,5.40
2024-05-09T07:44:47.471Z,4.53
2024-05-09T07:45:45.405Z,4.47
2024-05-09T07:47:37.089Z,4.30
2024-05-09T07:50:53.457Z,3.97
2024-05-09T07:52:39.210Z,4.18
2024-05-09T07:53:22.050Z,4.50
2024-05-09T07:53:35.945Z,3.90
2024-05-09T07:54:03.472Z,4.00
2024-05-09T07:54:45.959Z,3.97
2024-05-09T07:55:28.073Z,3.92
2024-05-09T07:56:11.622Z,4.20
2024-05-09T07:56:54.307Z,4.30
2024-05-09T07:57:37.283Z,3.92
2024-05-09T07:58:19.256Z,3.95
2024-05-09T07:59:01.109Z,3.83
2024-05-09T07:59:42.968Z,4.38
2024-05-09T08:00:31.028Z,3.97
2024-05-09T08:01:14.016Z,3.70
2024-05-09T08:01:56.001Z,3.55
2024-05-09T08:02:37.918Z,3.55
2024-05-09T08:03:20.061Z,3.45
2024-05-09T08:04:02.025Z,3.50
2024-05-09T08:04:44.094Z,4.00
2024-05-09T08:05:26.224Z,3.53
2024-05-09T08:06:08.154Z,2.90
2024-05-09T08:06:50.231Z,2.75
2024-05-09T08:07:35.221Z,2.83
2024-05-09T08:08:17.115Z,2.90
2024-05-09T08:09:03.006Z,2.78
2024-05-09T08:09:49.633Z,3.17
2024-05-09T08:10:31.646Z,2.47
2024-05-09T08:11:13.729Z,2.30
2024-05-09T08:11:55.686Z,2.08
2024-05-09T08:12:37.577Z,2.60
2024-05-09T08:13:19.499Z,2.28
2024-05-09T08:14:01.429Z,2.22
2024-05-09T08:14:43.280Z,2.70
2024-05-09T08:15:25.115Z,2.90
2024-05-09T08:16:07.392Z,2.50
2024-05-09T08:16:49.363Z,2.35
2024-05-09T08:17:31.425Z,2.15
2024-05-09T08:18:13.390Z,2.05
2024-05-09T08:18:55.529Z,1.75
2024-05-09T08:19:37.734Z,2.20
2024-05-09T08:20:26.977Z,2.35
2024-05-09T08:21:12.972Z,2.05
2024-05-09T08:21:55.146Z,2.20
2024-05-09T08:22:37.034Z,1.80
2024-05-09T08:23:18.994Z,2.13
2024-05-09T08:24:00.871Z,2.05
2024-05-09T08:24:43.076Z,1.80
2024-05-09T08:25:24.976Z,1.48
2024-05-09T08:26:07.485Z,1.90
2024-05-09T08:26:49.357Z,1.85
2024-05-09T08:27:31.242Z,1.60
2024-05-09T08:28:13.378Z,1.40
2024-05-09T08:28:55.510Z,1.48
2024-05-09T08:29:37.498Z,1.65
2024-05-09T08:30:25.286Z,1.40
2024-05-09T08:31:14.577Z,1.77
2024-05-09T08:31:58.906Z,1.40
2024-05-09T08:32:41.646Z,1.70
2024-05-09T08:33:23.975Z,1.73
2024-05-09T08:34:08.909Z,1.70
2024-05-09T08:34:51.027Z,2.10
2024-05-09T08:35:33.168Z,1.83
2024-05-09T08:36:15.150Z,2.00
2024-05-09T08:36:59.669Z,1.70
2024-05-09T08:37:43.777Z,1.70
2024-05-09T08:38:25.868Z,1.75
2024-05-09T08:39:07.994Z,1.65
2024-05-09T08:39:50.499Z,1.90
2024-05-09T08:40:36.062Z,1.42
2024-05-09T08:41:19.478Z,1.98
2024-05-09T08:42:07.799Z,1.80
2024-05-09T08:42:52.609Z,1.65
2024-05-09T08:43:36.151Z,1.80
2024-05-09T08:44:20.454Z,1.98
2024-05-09T08:45:02.409Z,1.38
2024-05-09T08:45:47.000Z,1.98
2024-05-09T08:46:30.761Z,1.40
2024-05-09T08:47:14.070Z,1.88
2024-05-09T08:47:59.548Z,1.70
2024-05-09T08:48:44.169Z,1.50
2024-05-09T08:49:26.479Z,1.88
2024-05-09T08:50:23.470Z,1.83
2024-05-09T08:51:11.027Z,1.60
2024-05-09T08:51:53.355Z,1.70
2024-05-09T08:52:35.843Z,1.67
2024-05-09T08:53:18.109Z,1.65
2024-05-09T08:54:00.050Z,1.60
2024-05-09T08:54:42.017Z,2.03
2024-05-09T08:55:25.507Z,2.10
2024-05-09T08:56:11.259Z,1.80
2024-05-09T08:56:53.326Z,2.15
2024-05-09T08:57:36.449Z,1.80
2024-05-09T08:58:21.858Z,1.55
2024-05-09T08:59:06.814Z,1.98
2024-05-09T08:59:51.981Z,2.10
2024-05-09T09:00:37.172Z,1.75
2024-05-09T09:01:20.663Z,1.73
2024-05-09T09:02:04.724Z,1.98
2024-05-09T09:02:49.472Z,1.60
2024-05-09T09:03:33.786Z,2.13
2024-05-09T09:04:18.201Z,2.25
2024-05-09T09:05:11.293Z,1.60
2024-05-09T09:05:58.925Z,1.40
2024-05-09T09:06:41.680Z,1.90
2024-05-09T09:07:25.090Z,1.80
2024-05-09T09:08:08.730Z,2.05
2024-05-09T09:08:51.285Z,1.58
2024-05-09T09:09:43.395Z,1.40
2024-05-09T09:10:31.901Z,2.05
2024-05-09T09:11:14.921Z,1.60
2024-05-09T09:11:56.828Z,1.65
2024-05-09T09:12:38.732Z,1.67
2024-05-09T09:13:20.654Z,1.58
2024-05-09T09:14:02.570Z,1.80
2024-05-09T09:14:44.364Z,1.90
2024-05-09T09:15:26.184Z,1.70
2024-05-09T09:16:08.169Z,1.35
2024-05-09T09:16:51.764Z,1.83
2024-05-09T09:17:33.747Z,1.60
2024-05-09T09:18:18.024Z,1.90
2024-05-09T09:19:00.727Z,1.60
2024-05-09T09:19:45.813Z,1.90
2024-05-09T09:20:35.359Z,1.88
2024-05-09T09:21:18.552Z,2.00
2024-05-09T09:22:00.397Z,1.77
2024-05-09T09:22:42.257Z,1.95
2024-05-09T09:23:25.275Z,1.85
2024-05-09T09:24:09.964Z,1.75
2024-05-09T09:24:52.759Z,1.67
2024-05-09T09:25:34.983Z,1.70
2024-05-09T09:26:17.210Z,1.65
2024-05-09T09:26:59.001Z,1.73
2024-05-09T09:27:40.887Z,1.63
2024-05-09T09:28:23.233Z,1.70
2024-05-09T09:29:05.226Z,1.73
2024-05-09T09:29:46.974Z,1.73
2024-05-09T09:30:36.309Z,1.60
2024-05-09T09:31:19.899Z,1.67
2024-05-09T09:32:04.087Z,1.50
2024-05-09T09:32:49.564Z,1.80
2024-05-09T09:33:32.059Z,1.50
2024-05-09T09:34:14.368Z,1.50
2024-05-09T09:34:56.888Z,1.52
2024-05-09T09:35:41.448Z,1.35
2024-05-09T09:36:23.341Z,1.50